Time;durP1;ratioP1;P1;durP2;ratioP2;P2;SDS_P1;SDS_P2;PMS_P1;PMS_P2;Temp;Humidity;BMP_temperature;BMP_pressure;BME280_temperature;BME280_humidity;BME280_pressure;Samples;Min_cycle;Max_cycle;Signal;HPM_P1;HPM_P2
2023/04/22 00:00:29;;;;;;;4.90;3.03;;;;;;;11.48;100.00;97847.66;4123488;28;20254;-48
2023/04/22 00:02:31;;;;;;;3.65;3.35;;;;;;;11.35;100.00;97859.16;4136262;28;20213;-48
2023/04/22 00:04:33;;;;;;;3.40;3.10;;;;;;;11.32;100.00;97848.72;4139117;28;20233;-48
2023/04/22 00:06:35;;;;;;;3.15;2.85;;;;;;;11.38;100.00;97853.13;4138804;28;20582;-48
2023/04/22 00:08:37;;;;;;;3.25;2.90;;;;;;;11.41;100.00;97849.84;4136277;28;20265;-48
2023/04/22 00:10:39;;;;;;;3.13;2.75;;;;;;;11.40;100.00;97850.94;4140961;28;20245;-48
2023/04/22 00:12:40;;;;;;;3.45;3.15;;;;;;;11.44;100.00;97846.56;4142395;28;20236;-49
2023/04/22 00:14:42;;;;;;;3.83;3.35;;;;;;;11.13;100.00;97838.56;4152487;28;20616;-48
2023/04/22 00:16:44;;;;;;;4.85;4.45;;;;;;;11.28;100.00;97842.16;4125140;28;20256;-48
2023/04/22 00:18:46;;;;;;;4.40;4.00;;;;;;;11.21;100.00;97841.59;4144487;28;20268;-47
2023/04/22 00:20:47;;;;;;;4.63;3.65;;;;;;;11.18;100.00;97844.84;4135350;28;20214;-48
2023/04/22 00:22:49;;;;;;;4.00;3.70;;;;;;;11.23;100.00;97838.59;4135212;28;20288;-48
2023/04/22 00:24:51;;;;;;;4.20;3.70;;;;;;;11.24;100.00;97845.72;4135162;28;20221;-48
2023/04/22 00:26:53;;;;;;;6.03;3.80;;;;;;;11.14;100.00;97831.97;4134561;28;20210;-48
2023/04/22 00:28:56;;;;;;;4.30;3.72;;;;;;;11.14;100.00;97841.03;4140056;28;21805;-48
2023/04/22 00:30:57;;;;;;;3.58;3.25;;;;;;;11.09;100.00;97854.69;4154631;28;20706;-48
2023/04/22 00:32:59;;;;;;;3.30;3.00;;;;;;;11.11;100.00;97846.22;4134666;28;20208;-48
2023/04/22 00:35:01;;;;;;;3.55;3.25;;;;;;;11.20;100.00;97845.44;4135736;28;20268;-48
2023/04/22 00:37:03;;;;;;;3.75;3.08;;;;;;;11.10;100.00;97850.88;4133648;28;20304;-49
2023/04/22 00:39:05;;;;;;;3.35;3.05;;;;;;;11.08;100.00;97853.06;4137918;28;20304;-48
2023/04/22 00:41:07;;;;;;;3.33;3.03;;;;;;;11.06;100.00;97855.25;4138561;28;20214;-48
2023/04/22 00:43:09;;;;;;;3.30;3.00;;;;;;;11.11;100.00;97857.97;4133374;28;20209;-50
2023/04/22 00:45:11;;;;;;;5.00;3.38;;;;;;;11.13;100.00;97852.25;4133299;28;20255;-48
2023/04/22 00:47:13;;;;;;;3.00;2.75;;;;;;;11.09;100.00;97853.88;4132601;28;20268;-49
2023/04/22 00:49:15;;;;;;;2.95;2.75;;;;;;;11.04;100.00;97854.69;4125226;28;20238;-48
2023/04/22 00:51:17;;;;;;;2.88;2.67;;;;;;;11.11;100.00;97852.50;4132064;28;20264;-48
2023/04/22 00:53:19;;;;;;;3.05;2.85;;;;;;;10.99;100.00;97854.69;4121160;28;20304;-48
2023/04/22 00:55:21;;;;;;;3.08;2.63;;;;;;;10.96;100.00;97851.63;4135243;28;20269;-48
2023/04/22 00:57:23;;;;;;;2.75;2.55;;;;;;;11.11;100.00;97857.97;4135231;28;20344;-48
2023/04/22 00:59:25;;;;;;;3.92;2.58;;;;;;;11.05;100.00;97859.06;4135861;28;20337;-48
2023/04/22 01:01:27;;;;;;;3.00;2.75;;;;;;;10.92;100.00;97854.09;4130993;28;20758;-48
2023/04/22 01:03:30;;;;;;;2.67;2.47;;;;;;;11.03;100.00;97861.25;4134787;28;20201;-48
2023/04/22 01:05:32;;;;;;;2.90;2.63;;;;;;;10.91;100.00;97852.44;4137836;28;20360;-47
2023/04/22 01:07:35;;;;;;;6.35;3.38;;;;;;;10.88;100.00;97853.00;4134460;28;20205;-47
2023/04/22 01:09:38;;;;;;;2.55;2.35;;;;;;;10.73;100.00;97856.75;4135809;28;20243;-48
2023/04/22 01:11:41;;;;;;;3.05;2.50;;;;;;;10.72;100.00;97852.34;4134210;28;20257;-48
2023/04/22 01:13:42;;;;;;;3.65;3.30;;;;;;;10.82;100.00;97852.41;4151271;28;20201;-48
2023/04/22 01:15:44;;;;;;;3.55;2.97;;;;;;;10.62;100.00;97852.31;4132204;28;20300;-48
2023/04/22 01:17:46;;;;;;;2.72;2.53;;;;;;;10.66;100.00;97847.94;4116958;28;20241;-48
2023/04/22 01:19:48;;;;;;;2.58;2.38;;;;;;;10.73;100.00;97849.38;4150543;28;20235;-48
2023/04/22 01:21:51;;;;;;;3.35;3.05;;;;;;;10.81;100.00;97840.63;4133341;28;20214;-48
2023/04/22 01:23:53;;;;;;;3.88;3.45;;;;;;;10.77;100.00;97853.22;4134207;28;20206;-48
2023/04/22 01:25:55;;;;;;;9.48;2.35;;;;;;;10.59;100.00;97839.16;4150917;28;20260;-48
2023/04/22 01:27:57;;;;;;;3.03;2.60;;;;;;;10.61;100.00;97840.56;4149003;28;20696;-47
2023/04/22 01:29:59;;;;;;;3.28;2.88;;;;;;;10.65;100.00;97851.78;4134602;28;20944;-48
2023/04/22 01:32:02;;;;;;;3.28;2.97;;;;;;;10.79;100.00;97842.81;4134517;28;20205;-49
2023/04/22 01:34:04;;;;;;;3.13;2.92;;;;;;;10.77;100.00;97839.53;4131046;28;20304;-48
2023/04/22 01:36:06;;;;;;;2.85;2.65;;;;;;;10.75;100.00;97840.91;4138287;28;20213;-48
2023/04/22 01:38:10;;;;;;;2.90;2.70;;;;;;;10.66;100.00;97835.09;4136643;28;20761;-48
2023/04/22 01:40:13;;;;;;;3.05;2.85;;;;;;;10.67;100.00;97844.16;4146996;28;20215;-48
2023/04/22 01:42:15;;;;;;;3.40;2.50;;;;;;;10.67;100.00;97841.41;4133147;28;20210;-48
2023/04/22 01:44:18;;;;;;;3.53;3.22;;;;;;;10.72;100.00;97847.72;4134853;28;20205;-48
2023/04/22 01:46:20;;;;;;;3.00;2.80;;;;;;;10.77;100.00;97844.19;4120456;28;21030;-48
2023/04/22 01:48:23;;;;;;;5.43;3.15;;;;;;;10.69;100.00;97841.97;4120796;28;20838;-48
2023/04/22 01:50:24;;;;;;;4.00;3.70;;;;;;;10.67;100.00;97844.16;4134537;28;20240;-48
2023/04/22 01:52:26;;;;;;;3.00;2.80;;;;;;;10.72;100.00;97846.88;4125541;28;20550;-49
2023/04/22 01:54:28;;;;;;;2.83;2.63;;;;;;;10.67;100.00;97844.16;4139760;28;20209;-48
2023/04/22 01:56:30;;;;;;;3.33;3.03;;;;;;;10.58;100.00;97843.00;4137075;28;20209;-48
2023/04/22 01:58:32;;;;;;;5.28;3.25;;;;;;;10.56;100.00;97842.44;4140782;28;21383;-48
2023/04/22 02:00:34;;;;;;;4.28;2.60;;;;;;;10.55;100.00;97838.88;4124085;28;22533;-48
2023/04/22 02:02:35;;;;;;;3.33;2.70;;;;;;;10.54;100.00;97841.91;4138491;28;20239;-48
2023/04/22 02:04:37;;;;;;;3.28;3.08;;;;;;;10.49;100.00;97847.34;4141515;28;20663;-48
2023/04/22 02:06:39;;;;;;;2.53;2.33;;;;;;;10.49;100.00;97844.59;4141425;28;20221;-49
2023/04/22 02:08:41;;;;;;;2.97;2.70;;;;;;;10.48;100.00;97851.16;4136745;28;20228;-47
2023/04/22 02:10:43;;;;;;;2.67;2.47;;;;;;;10.46;100.00;97853.31;4136958;28;20231;-48
2023/04/22 02:12:45;;;;;;;5.90;3.45;;;;;;;10.46;100.00;97853.31;4141155;28;20206;-48
2023/04/22 02:14:46;;;;;;;3.08;2.60;;;;;;;10.45;100.00;97848.94;4136633;28;20263;-48
2023/04/22 02:16:48;;;;;;;3.63;2.33;;;;;;;10.50;100.00;97854.44;4122038;28;20743;-48
2023/04/22 02:18:50;;;;;;;3.25;2.92;;;;;;;10.46;100.00;97859.63;4139509;28;20257;-48
2023/04/22 02:20:52;;;;;;;3.67;3.33;;;;;;;10.40;100.00;97857.94;4128302;28;20748;-48
2023/04/22 02:22:53;;;;;;;3.55;3.25;;;;;;;10.36;100.00;97856.03;4137818;28;20209;-48
2023/04/22 02:24:55;;;;;;;4.13;2.90;;;;;;;10.41;100.00;97861.53;4123375;28;20241;-48
2023/04/22 02:26:57;;;;;;;3.58;3.28;;;;;;;10.39;100.00;97860.94;4139358;28;20210;-48
2023/04/22 02:28:59;;;;;;;2.80;2.58;;;;;;;10.36;100.00;97858.75;4134825;28;20244;-47
2023/04/22 02:31:00;;;;;;;2.83;2.63;;;;;;;10.33;100.00;97865.56;4138137;28;20312;-48
2023/04/22 02:33:02;;;;;;;3.30;3.08;;;;;;;10.28;100.00;97870.19;4144943;28;20240;-48
2023/04/22 02:35:05;;;;;;;3.85;3.55;;;;;;;10.28;100.00;97862.78;4137040;28;20216;-48
2023/04/22 02:37:07;;;;;;;2.70;2.50;;;;;;;10.24;100.00;97860.84;4140357;28;20249;-47
2023/04/22 02:39:09;;;;;;;3.58;2.58;;;;;;;10.20;100.00;97859.72;4140284;28;20322;-49
2023/04/22 02:41:11;;;;;;;3.08;2.78;;;;;;;10.30;100.00;97859.81;4143634;28;20209;-48
2023/04/22 02:43:12;;;;;;;4.40;3.30;;;;;;;10.29;100.00;97863.63;4128678;28;20238;-48
2023/04/22 02:45:14;;;;;;;5.95;3.28;;;;;;;10.23;100.00;97853.75;4145790;28;20663;-49
2023/04/22 02:47:16;;;;;;;3.80;3.50;;;;;;;10.15;100.00;97859.72;4129189;28;20391;-48
2023/04/22 02:49:18;;;;;;;3.33;3.05;;;;;;;10.11;100.00;97864.06;4141930;28;20324;-48
2023/04/22 02:51:20;;;;;;;2.42;2.22;;;;;;;10.08;100.00;97865.41;4135849;28;20221;-48
2023/04/22 02:53:22;;;;;;;2.83;2.63;;;;;;;10.13;100.00;97864.59;4138771;28;20224;-48
2023/04/22 02:55:24;;;;;;;3.20;2.90;;;;;;;10.02;100.00;97866.41;4134630;28;20348;-48
2023/04/22 02:57:25;;;;;;;3.95;2.65;;;;;;;10.02;100.00;97873.81;4133405;28;20244;-49
2023/04/22 02:59:27;;;;;;;3.20;2.90;;;;;;;9.99;100.00;97871.56;4142092;28;20713;-48
2023/04/22 03:01:29;;;;;;;3.40;3.10;;;;;;;9.95;100.00;97862.28;4140819;28;20301;-48
2023/04/22 03:03:31;;;;;;;2.63;2.42;;;;;;;9.98;100.00;97869.94;4141661;28;20209;-49
2023/04/22 03:05:33;;;;;;;3.55;3.08;;;;;;;10.00;100.00;97865.03;4136277;28;20244;-48
2023/04/22 03:07:35;;;;;;;4.20;3.60;;;;;;;9.92;100.00;97869.09;4138252;28;20210;-49
2023/04/22 03:09:37;;;;;;;3.42;3.22;;;;;;;9.94;100.00;97868.84;4121423;28;20261;-48
2023/04/22 03:11:39;;;;;;;3.55;3.25;;;;;;;9.89;100.00;97868.78;4138859;28;20209;-48
2023/04/22 03:13:40;;;;;;;3.42;3.15;;;;;;;9.88;100.00;97872.59;4120766;28;20336;-49
2023/04/22 03:15:42;;;;;;;3.53;2.45;;;;;;;9.78;100.00;97872.50;4119528;28;20198;-48
2023/04/22 03:17:44;;;;;;;4.40;2.90;;;;;;;9.69;100.00;97874.09;4137736;28;20209;-48
2023/04/22 03:19:46;;;;;;;4.43;2.72;;;;;;;9.67;100.00;97865.34;4124068;28;20249;-48
2023/04/22 03:21:48;;;;;;;2.80;2.60;;;;;;;9.83;100.00;97858.91;4136381;28;20213;-48
2023/04/22 03:23:50;;;;;;;4.05;3.10;;;;;;;9.81;100.00;97863.81;4135752;28;20228;-48
2023/04/22 03:25:51;;;;;;;3.58;3.22;;;;;;;9.80;100.00;97849.31;4136721;28;20640;-48
2023/04/22 03:27:54;;;;;;;3.20;3.00;;;;;;;9.75;100.00;97856.66;4140247;28;20201;-48
2023/04/22 03:29:55;;;;;;;3.03;2.60;;;;;;;9.63;100.00;97858.72;4135554;28;20729;-48
2023/04/22 03:31:57;;;;;;;3.65;2.80;;;;;;;9.55;100.00;97862.75;4136933;28;21048;-48
2023/04/22 03:34:00;;;;;;;3.58;3.28;;;;;;;9.57;100.00;97865.22;4137443;28;21075;-48
2023/04/22 03:36:01;;;;;;;3.28;2.97;;;;;;;9.57;100.00;97860.59;4138860;28;20589;-48
2023/04/22 03:38:03;;;;;;;2.83;2.58;;;;;;;9.58;100.00;97861.41;4138221;28;20197;-49
2023/04/22 03:40:06;;;;;;;3.22;2.92;;;;;;;9.53;100.00;97856.72;4139871;28;20252;-48
2023/04/22 03:42:09;;;;;;;3.15;2.85;;;;;;;9.52;100.00;97852.34;4139733;28;20394;-48
2023/04/22 03:44:11;;;;;;;4.70;4.13;;;;;;;9.56;100.00;97852.66;4134251;28;20233;-48
2023/04/22 03:46:14;;;;;;;3.47;3.17;;;;;;;9.41;100.00;97849.78;4134473;28;20703;-48
2023/04/22 03:48:16;;;;;;;3.17;2.97;;;;;;;9.36;100.00;97852.47;4135962;28;20662;-48
2023/04/22 03:50:18;;;;;;;4.15;2.60;;;;;;;9.42;100.00;97848.72;4134177;28;20320;-48
2023/04/22 03:52:20;;;;;;;3.95;3.65;;;;;;;9.35;100.00;97840.72;4150789;28;22539;-48
2023/04/22 03:54:22;;;;;;;3.40;3.15;;;;;;;9.29;100.00;97840.94;4138477;28;20640;-48
2023/04/22 03:56:23;;;;;;;6.38;3.40;;;;;;;9.32;100.00;97840.41;4136178;28;20628;-48
2023/04/22 03:58:25;;;;;;;3.60;3.25;;;;;;;9.33;100.00;97837.44;4136249;28;20233;-48
2023/04/22 04:00:27;;;;;;;2.78;2.58;;;;;;;9.22;100.00;97841.13;4139362;28;20217;-48
2023/04/22 04:02:29;;;;;;;3.88;3.67;;;;;;;9.19;100.00;97841.66;4139017;28;20269;-48
2023/04/22 04:04:31;;;;;;;3.53;3.20;;;;;;;9.19;100.00;97847.13;4135366;28;20237;-48
2023/04/22 04:06:33;;;;;;;3.97;3.67;;;;;;;9.33;100.00;97842.88;4125894;28;20307;-48
2023/04/22 04:08:35;;;;;;;3.95;3.15;;;;;;;9.29;100.00;97835.47;4143193;28;20256;-49
2023/04/22 04:10:37;;;;;;;3.35;2.97;;;;;;;9.19;100.00;97840.81;4125677;28;20302;-48
2023/04/22 04:12:38;;;;;;;3.38;3.17;;;;;;;9.16;100.00;97839.44;4138614;28;20248;-48
2023/04/22 04:14:40;;;;;;;3.40;3.20;;;;;;;9.24;100.00;97838.16;4118647;28;20216;-48
2023/04/22 04:16:42;;;;;;;3.67;3.38;;;;;;;9.32;100.00;97827.59;4138281;28;20213;-48
2023/04/22 04:18:44;;;;;;;3.35;3.05;;;;;;;9.27;100.00;97826.69;4135198;28;20230;-48
2023/04/22 04:20:46;;;;;;;5.15;2.97;;;;;;;9.28;100.00;97831.91;4138239;28;20240;-48
2023/04/22 04:22:47;;;;;;;3.65;3.35;;;;;;;9.25;100.00;97823.41;4134795;28;20305;-48
2023/04/22 04:24:49;;;;;;;7.07;3.13;;;;;;;9.19;100.00;97819.00;4118955;28;20210;-48
2023/04/22 04:26:52;;;;;;;2.60;2.40;;;;;;;9.17;100.00;97821.16;4136596;28;20268;-47
2023/04/22 04:28:54;;;;;;;3.30;3.03;;;;;;;9.18;100.00;97817.34;4135576;28;20233;-49
2023/04/22 04:30:56;;;;;;;2.95;2.75;;;;;;;9.26;100.00;97806.78;4116996;28;20287;-49
2023/04/22 04:32:58;;;;;;;2.95;2.75;;;;;;;9.23;100.00;97810.03;4133112;28;20210;-48
2023/04/22 04:35:01;;;;;;;4.18;3.40;;;;;;;9.22;100.00;97813.84;4133013;28;20213;-50
2023/04/22 04:37:02;;;;;;;3.47;3.28;;;;;;;9.19;100.00;97808.91;4134921;28;20233;-49
2023/04/22 04:39:05;;;;;;;3.67;3.20;;;;;;;9.19;100.00;97816.25;4138518;28;20804;-48
2023/04/22 04:41:08;;;;;;;2.78;2.58;;;;;;;9.22;100.00;97818.50;4135429;28;20225;-47
2023/04/22 04:43:11;;;;;;;3.45;3.15;;;;;;;9.29;100.00;97824.56;4133614;28;20314;-48
2023/04/22 04:45:18;;;;;;;4.30;3.95;;;;;;;9.27;100.00;97826.69;4134839;28;20285;-48
2023/04/22 04:47:21;;;;;;;3.88;3.58;;;;;;;9.23;100.00;97833.78;4137209;28;20222;-49
2023/04/22 04:49:23;;;;;;;3.47;3.17;;;;;;;9.22;100.00;97835.66;4133729;28;20363;-48
2023/04/22 04:51:25;;;;;;;14.95;6.47;;;;;;;9.14;100.00;97835.34;4135535;28;20775;-48
2023/04/22 04:53:27;;;;;;;3.08;2.80;;;;;;;9.06;100.00;97833.03;4137842;28;20221;-48
2023/04/22 04:55:28;;;;;;;3.60;3.30;;;;;;;9.09;100.00;97835.28;4132784;28;20252;-48
2023/04/22 04:57:30;;;;;;;3.65;3.33;;;;;;;9.02;100.00;97834.66;4135426;28;20547;-48
2023/04/22 04:59:32;;;;;;;3.72;3.42;;;;;;;9.11;100.00;97844.03;4133563;28;20257;-48
2023/04/22 05:01:34;;;;;;;3.92;3.63;;;;;;;9.02;100.00;97843.66;4118521;28;20206;-49
2023/04/22 05:03:36;;;;;;;3.22;2.92;;;;;;;9.00;100.00;97847.72;4138461;28;20662;-48
2023/04/22 05:05:38;;;;;;;3.15;2.85;;;;;;;8.98;100.00;97858.06;4139639;28;20689;-48
2023/04/22 05:07:40;;;;;;;2.90;2.70;;;;;;;9.00;100.00;97858.63;4138740;28;20252;-48
2023/04/22 05:09:42;;;;;;;4.05;3.20;;;;;;;9.01;100.00;97860.31;4134410;28;20261;-48
2023/04/22 05:11:44;;;;;;;4.32;3.08;;;;;;;9.03;100.00;97860.84;4137711;28;20201;-48
2023/04/22 05:13:45;;;;;;;3.70;2.63;;;;;;;9.02;100.00;97868.22;4135129;28;21922;-49
2023/04/22 05:15:47;;;;;;;8.65;3.67;;;;;;;9.03;100.00;97869.84;4133430;28;20479;-49
2023/04/22 05:17:49;;;;;;;4.78;4.32;;;;;;;9.14;100.00;97871.63;4132053;28;20202;-48
2023/04/22 05:19:51;;;;;;;3.63;2.70;;;;;;;9.13;100.00;97872.72;4138578;28;20226;-48
2023/04/22 05:21:53;;;;;;;3.67;2.97;;;;;;;9.03;100.00;97879.97;4132771;28;20236;-48
2023/04/22 05:23:54;;;;;;;7.22;4.13;;;;;;;8.99;100.00;97879.66;4134745;28;20292;-50
2023/04/22 05:25:57;;;;;;;3.67;3.38;;;;;;;9.03;100.00;97869.03;4121179;28;20297;-49
2023/04/22 05:27:58;;;;;;;4.80;2.50;;;;;;;9.04;100.00;97871.53;4137626;28;20243;-48
2023/04/22 05:30:00;;;;;;;3.85;3.55;;;;;;;9.03;100.00;97874.50;4125571;28;20206;-48
2023/04/22 05:32:02;;;;;;;3.47;3.17;;;;;;;9.09;100.00;97874.28;4140478;28;20201;-50
2023/04/22 05:34:04;;;;;;;3.83;3.53;;;;;;;9.27;100.00;97867.66;4145611;28;20212;-48
2023/04/22 05:36:06;;;;;;;3.30;3.10;;;;;;;9.34;100.00;97877.28;4137383;28;20209;-48
2023/04/22 05:38:08;;;;;;;3.47;3.10;;;;;;;9.35;100.00;97865.28;4151666;28;20217;-48
2023/04/22 05:40:10;;;;;;;4.00;3.70;;;;;;;9.31;100.00;97872.38;4137028;28;20229;-48
2023/04/22 05:42:11;;;;;;;3.13;2.85;;;;;;;9.55;100.00;97867.41;4138367;28;20268;-48
2023/04/22 05:44:13;;;;;;;3.00;2.83;;;;;;;9.60;100.00;97864.69;4141296;28;20205;-48
2023/04/22 05:46:15;;;;;;;3.75;2.75;;;;;;;9.91;100.00;97872.06;4141228;28;20253;-48
2023/04/22 05:48:17;;;;;;;3.20;3.00;;;;;;;10.20;100.00;97874.22;4153773;28;20717;-48
2023/04/22 05:50:18;;;;;;;2.78;2.58;;;;;;;10.35;100.00;97870.78;4125166;28;20202;-48
2023/04/22 05:52:26;;;;;;;3.40;3.10;;;;;;;10.54;100.00;97877.47;4138691;28;20213;-50
2023/04/22 05:54:28;;;;;;;3.15;2.83;;;;;;;10.67;100.00;97876.97;4139570;28;20308;-48
2023/04/22 05:56:30;;;;;;;2.92;2.38;;;;;;;10.93;100.00;97872.19;4125058;28;20237;-48
2023/04/22 05:58:31;;;;;;;2.78;2.58;;;;;;;11.06;100.00;97871.69;4138453;28;20703;-48
2023/04/22 06:00:33;;;;;;;2.95;2.53;;;;;;;11.25;100.00;97870.06;4139072;28;20241;-48
2023/04/22 06:02:35;;;;;;;2.42;2.22;;;;;;;11.47;100.00;97876.16;4152498;28;20209;-48
2023/04/22 06:04:37;;;;;;;2.85;2.65;;;;;;;11.72;100.00;97867.97;4135157;28;20296;-49
2023/04/22 06:06:39;;;;;;;2.60;2.40;;;;;;;11.64;100.00;97865.78;4134932;28;20231;-48
2023/04/22 06:08:41;;;;;;;3.30;3.08;;;;;;;11.74;100.00;97860.34;4146366;28;20331;-48
2023/04/22 06:10:43;;;;;;;2.85;2.50;;;;;;;11.87;100.00;97862.53;4149230;28;20205;-48
2023/04/22 06:12:45;;;;;;;4.07;2.60;;;;;;;12.05;100.00;97870.19;4136235;28;20217;-49
2023/04/22 06:14:46;;;;;;;2.95;2.75;;;;;;;12.11;100.00;97869.06;4139614;28;20233;-48
2023/04/22 06:16:49;;;;;;;3.15;2.17;;;;;;;12.14;100.00;97863.06;4151160;28;20331;-48
2023/04/22 06:18:51;;;;;;;4.18;2.55;;;;;;;12.22;100.00;97862.50;4137691;28;20226;-49
2023/04/22 06:20:53;;;;;;;2.10;1.90;;;;;;;12.11;100.00;97866.34;4152395;28;20263;-48
2023/04/22 06:22:55;;;;;;;2.05;1.90;;;;;;;12.01;100.00;97863.63;4137291;28;20244;-48
2023/04/22 06:24:56;;;;;;;3.00;2.08;;;;;;;11.93;100.00;97868.81;4140713;28;20216;-48
2023/04/22 06:26:58;;;;;;;2.28;2.17;;;;;;;11.88;100.00;97864.16;4142253;28;20689;-48
2023/04/22 06:29:04;;;;;;;2.97;2.05;;;;;;;11.73;100.00;97875.13;4151005;28;20228;-48
2023/04/22 06:31:05;;;;;;;2.35;2.08;;;;;;;11.93;100.00;97866.91;4135855;28;20280;-48
2023/04/22 06:33:07;;;;;;;3.53;2.22;;;;;;;12.14;100.00;97878.69;4150907;28;20635;-48
2023/04/22 06:35:09;;;;;;;2.72;2.50;;;;;;;12.10;100.00;97872.94;4122476;28;20297;-48
2023/04/22 06:37:11;;;;;;;2.13;1.92;;;;;;;12.16;100.00;97871.81;4143855;28;20873;-48
2023/04/22 06:39:13;;;;;;;2.97;2.65;;;;;;;12.44;100.00;97868.47;4124664;28;20237;-48
2023/04/22 06:41:15;;;;;;;3.20;2.55;;;;;;;12.69;100.00;97871.16;4135631;28;20209;-48
2023/04/22 06:43:17;;;;;;;2.58;2.38;;;;;;;13.14;100.00;97876.53;4121876;28;20923;-48
2023/04/22 06:45:19;;;;;;;2.67;2.47;;;;;;;13.50;100.00;97866.97;4132412;28;20242;-49
2023/04/22 06:47:21;;;;;;;2.30;2.05;;;;;;;13.84;100.00;97862.31;4132379;28;20226;-48
2023/04/22 06:49:23;;;;;;;1.98;1.88;;;;;;;14.54;98.48;97867.25;4102857;28;20281;-47
2023/04/22 06:51:24;;;;;;;2.63;2.42;;;;;;;14.75;95.71;97863.16;4138569;28;20213;-48
2023/04/22 06:53:26;;;;;;;19.17;2.28;;;;;;;14.97;93.01;97862.63;4134574;28;20228;-48
2023/04/22 06:55:28;;;;;;;2.40;2.20;;;;;;;14.80;92.28;97865.84;4120465;28;20394;-48
2023/04/22 06:57:30;;;;;;;1.98;1.77;;;;;;;14.75;91.92;97874.16;4152756;28;20244;-48
2023/04/22 06:59:32;;;;;;;3.75;2.08;;;;;;;14.95;91.09;97868.41;4152459;28;20232;-48
2023/04/22 07:01:34;;;;;;;2.63;2.35;;;;;;;15.24;89.45;97866.38;4137725;28;20296;-48
2023/04/22 07:03:35;;;;;;;1.92;1.83;;;;;;;15.57;88.45;97861.84;4139469;28;20209;-48
2023/04/22 07:05:38;;;;;;;2.08;1.63;;;;;;;15.73;88.52;97866.00;4137270;28;20214;-48
2023/04/22 07:07:44;;;;;;;1.92;1.83;;;;;;;15.54;86.80;97877.06;4139617;28;20266;-48
2023/04/22 07:09:45;;;;;;;1.50;1.40;;;;;;;15.82;87.43;97869.75;4136015;28;20270;-48
2023/04/22 07:11:47;;;;;;;1.73;1.63;;;;;;;15.44;83.83;97871.66;4151354;28;20205;-48
2023/04/22 07:13:49;;;;;;;1.63;1.40;;;;;;;15.59;85.05;97868.72;4136263;28;20244;-48
2023/04/22 07:15:51;;;;;;;1.48;1.38;;;;;;;16.13;83.68;97863.44;4153498;28;20209;-48
2023/04/22 07:17:52;;;;;;;1.70;1.60;;;;;;;16.72;82.73;97855.22;4136959;28;20197;-48
2023/04/22 07:19:54;;;;;;;2.13;1.27;;;;;;;16.80;80.57;97870.25;4134574;28;20252;-48
2023/04/22 07:21:56;;;;;;;4.05;1.85;;;;;;;16.54;80.62;97866.34;4120165;28;20211;-48
2023/04/22 07:23:58;;;;;;;2.45;1.10;;;;;;;17.44;79.90;97862.63;4134005;28;20602;-48
2023/04/22 07:26:00;;;;;;;1.35;1.17;;;;;;;18.07;77.55;97866.13;4152345;28;20213;-48
2023/04/22 07:28:02;;;;;;;1.40;1.30;;;;;;;18.10;76.65;97871.84;4136614;28;20275;-48
2023/04/22 07:30:06;;;;;;;1.63;1.30;;;;;;;18.04;76.92;97866.75;4134886;28;20660;-47
2023/04/22 07:32:08;;;;;;;1.10;1.00;;;;;;;17.33;67.51;97863.91;4132454;28;20212;-48
2023/04/22 07:34:10;;;;;;;2.30;0.93;;;;;;;17.13;70.66;97864.34;4137765;28;21685;-48
2023/04/22 07:36:12;;;;;;;2.08;1.10;;;;;;;17.32;69.06;97865.06;4117325;28;20207;-48
2023/04/22 07:38:14;;;;;;;2.03;0.80;;;;;;;17.27;66.00;97859.63;4151860;28;20255;-48
2023/04/22 07:40:16;;;;;;;0.95;0.85;;;;;;;17.70;67.65;97847.88;4139703;28;20205;-49
2023/04/22 07:42:17;;;;;;;0.98;0.90;;;;;;;18.22;64.72;97851.88;4124369;28;20214;-48
2023/04/22 07:44:20;;;;;;;1.23;1.00;;;;;;;17.85;62.28;97852.25;4137613;28;20214;-48
2023/04/22 07:46:22;;;;;;;0.80;0.80;;;;;;;18.46;63.14;97858.75;4123179;28;20889;-48
2023/04/22 07:48:24;;;;;;;1.88;0.93;;;;;;;18.28;61.44;97858.94;4132253;28;20260;-48
2023/04/22 07:50:26;;;;;;;0.80;0.80;;;;;;;18.24;62.10;97855.19;4153048;28;20422;-48
2023/04/22 07:52:34;;;;;;;0.90;0.88;;;;;;;18.14;57.84;97836.03;4153266;28;20212;-49
2023/04/22 07:54:56;;;;;;;1.30;1.20;;;;;;;18.25;60.00;97845.72;4137577;28;20213;-48
2023/04/22 07:56:58;;;;;;;3.83;1.25;;;;;;;18.67;60.71;97842.41;4120792;28;20234;-48
2023/04/22 07:59:00;;;;;;;0.82;0.73;;;;;;;18.66;56.97;97843.56;4134536;28;20782;-48
2023/04/22 08:01:02;;;;;;;2.17;0.90;;;;;;;18.83;55.84;97844.47;4131827;28;20302;-48
2023/04/22 08:03:04;;;;;;;1.60;0.90;;;;;;;18.65;54.27;97851.03;4117529;28;20261;-48
2023/04/22 08:05:06;;;;;;;1.52;0.90;;;;;;;18.51;54.45;97843.97;4134672;28;20261;-48
2023/04/22 08:07:08;;;;;;;1.60;0.82;;;;;;;18.45;53.34;97846.03;4154065;28;20233;-48
2023/04/22 08:09:30;;;;;;;0.82;0.80;;;;;;;18.24;53.55;97841.31;4126648;28;20345;-49
2023/04/22 08:11:32;;;;;;;0.85;0.85;;;;;;;18.56;54.79;97846.59;4135974;28;21067;-48
2023/04/22 08:13:34;;;;;;;2.50;0.90;;;;;;;18.64;52.31;97840.31;4134646;28;20451;-48
2023/04/22 08:15:45;;;;;;;2.38;0.90;;;;;;;18.79;51.60;97850.97;4135436;28;20233;-46
2023/04/22 08:18:03;;;;;;;0.95;0.80;;;;;;;19.05;52.53;97841.59;4120368;28;20256;-49
2023/04/22 08:20:07;;;;;;;0.82;0.80;;;;;;;18.65;51.00;97850.25;4134535;28;20212;-48
2023/04/22 08:22:09;;;;;;;1.42;1.13;;;;;;;18.55;52.28;97847.72;4137837;28;20204;-48
2023/04/22 08:24:10;;;;;;;0.75;0.70;;;;;;;18.60;53.03;97842.88;4136086;28;20252;-51
2023/04/22 08:26:14;;;;;;;0.82;0.70;;;;;;;18.71;53.06;97833.16;4138482;28;20792;-50
2023/04/22 08:28:15;;;;;;;0.98;0.90;;;;;;;18.67;52.55;97836.88;4131121;28;20631;-48
2023/04/22 08:30:17;;;;;;;5.28;0.85;;;;;;;18.53;51.91;97833.38;4153028;28;20312;-49
2023/04/22 08:32:21;;;;;;;7.00;0.90;;;;;;;18.54;52.28;97833.06;4138061;28;20253;-49
2023/04/22 08:34:24;;;;;;;1.20;0.80;;;;;;;18.40;54.85;97826.81;4134098;28;20214;-50
2023/04/22 08:36:29;;;;;;;0.80;0.80;;;;;;;18.50;53.57;97831.22;4137305;28;21782;-49
2023/04/22 08:38:31;;;;;;;0.70;0.70;;;;;;;18.78;53.07;97832.69;4137290;28;20325;-50
2023/04/22 08:40:34;;;;;;;1.70;0.95;;;;;;;18.84;52.43;97834.19;4138233;28;20201;-48
2023/04/22 08:42:36;;;;;;;0.73;0.73;;;;;;;19.10;51.31;97829.53;4132618;28;20304;-49
2023/04/22 08:44:38;;;;;;;0.73;0.70;;;;;;;19.29;51.34;97832.91;4151411;28;20708;-49
2023/04/22 08:46:45;;;;;;;1.35;0.80;;;;;;;19.16;50.44;97826.31;4136331;28;20221;-49
2023/04/22 08:48:47;;;;;;;1.33;1.17;;;;;;;18.98;50.18;97832.94;4136247;28;20264;-49
2023/04/22 08:50:50;;;;;;;1.05;0.93;;;;;;;19.04;50.98;97825.31;4133123;28;20229;-48
2023/04/22 08:52:51;;;;;;;2.05;1.33;;;;;;;19.34;52.14;97835.53;4134498;28;20249;-49
2023/04/22 08:54:53;;;;;;;0.85;0.80;;;;;;;19.32;50.76;97821.97;4150692;28;20205;-49
2023/04/22 08:56:55;;;;;;;1.48;0.90;;;;;;;19.19;51.11;97827.63;4138878;28;20567;-48
2023/04/22 08:58:57;;;;;;;0.85;0.80;;;;;;;19.36;51.36;97824.91;4127998;28;20743;-49
2023/04/22 09:01:16;;;;;;;2.60;0.90;;;;;;;19.45;49.93;97825.75;4137079;28;20209;-48
2023/04/22 09:03:27;;;;;;;0.88;0.88;;;;;;;19.60;49.85;97828.91;4133659;28;20745;-48
2023/04/22 09:05:32;;;;;;;2.35;0.93;;;;;;;19.45;48.17;97821.00;4134165;28;20243;-49
2023/04/22 09:07:35;;;;;;;1.33;0.80;;;;;;;19.59;46.99;97809.78;4131843;28;20307;-49
2023/04/22 09:09:37;;;;;;;1.23;0.82;;;;;;;19.95;47.04;97819.44;4135764;28;21204;-49
2023/04/22 09:11:40;;;;;;;1.92;0.73;;;;;;;20.12;47.76;97813.88;4132486;28;20217;-48
2023/04/22 09:13:46;;;;;;;1.45;0.80;;;;;;;20.05;46.57;97813.56;4132318;28;20213;-49
2023/04/22 09:15:47;;;;;;;1.50;1.10;;;;;;;20.23;47.78;97815.19;4130245;28;20204;-49
2023/04/22 09:17:52;;;;;;;1.35;1.10;;;;;;;20.44;46.07;97813.34;4137447;28;20332;-48
2023/04/22 09:20:03;;;;;;;2.47;0.80;;;;;;;20.80;46.95;97804.56;4134166;28;20392;-50
2023/04/22 09:22:09;;;;;;;1.42;0.80;;;;;;;21.06;45.74;97802.53;4131175;28;20213;-49
2023/04/22 09:24:11;;;;;;;0.85;0.77;;;;;;;20.63;45.11;97801.84;4134808;28;20205;-49
2023/04/22 09:26:14;;;;;;;1.55;0.90;;;;;;;20.81;45.55;97797.84;4135914;28;20233;-48
2023/04/22 09:28:18;;;;;;;1.35;0.88;;;;;;;20.93;45.15;97806.34;4132906;28;20240;-49
2023/04/22 09:30:29;;;;;;;1.15;0.77;;;;;;;21.04;45.77;97796.47;4139320;28;20221;-49
2023/04/22 09:32:30;;;;;;;1.33;1.20;;;;;;;20.61;45.26;97798.56;4140616;28;20220;-46